Pagadian, Philippines
Current Conditions -  °F | °C
As of 8:00 AM on Sunday 21 Dec 2014 (Local Time) from RPMZ Reporting Station
Light Rain Light Rain  
Wind Chill: 77°   Ceiling: 10000
Heat Index: 78°   Visibility: 3mi
Dew Point: 75°   Wind: 12mph
Humidity: 94%   Direction: 20°NNE
Pressure: 29.85"   Gusts: NA
Location:  7.84°N, 123.5°E
Report Text: RPMZ 210000Z 02010KT 5000 -RA SCT018 OVC100 25/24 Q1011 RMK A2985
Loading
Personal Weather Stations






























Interactive Weather Map New forecast layout! Learn more

10-Day Weather Forecast

Advertisements
Track Severe Weather on mobile